Time;durP1;ratioP1;P1;durP2;ratioP2;P2;SDS_P1;SDS_P2;PMS_P1;PMS_P2;Temp;Humidity;BMP_temperature;BMP_pressure;BME280_temperature;BME280_humidity;BME280_pressure;Samples;Min_cycle;Max_cycle;Signal;HPM_P1;HPM_P2
2023/10/01 00:01:45;;;;;;;19.43;18.73;;;14.10;99.90;;;;;;5065494;28;20334;-66
2023/10/01 00:04:12;;;;;;;19.87;19.13;;;14.00;99.90;;;;;;5066833;28;20230;-66
2023/10/01 00:06:40;;;;;;;24.27;23.37;;;14.00;99.90;;;;;;5064057;28;20199;-65
2023/10/01 00:09:09;;;;;;;24.83;23.93;;;14.00;99.90;;;;;;5067731;28;20286;-66
2023/10/01 00:11:38;;;;;;;22.90;22.10;;;14.00;99.90;;;;;;5064485;28;20314;-65
2023/10/01 00:14:07;;;;;;;28.43;27.37;;;13.90;99.90;;;;;;5065395;28;20203;-67
2023/10/01 00:16:37;;;;;;;22.57;21.77;;;13.90;99.90;;;;;;5066407;28;20207;-66
2023/10/01 00:19:04;;;;;;;25.50;24.53;;;13.90;99.90;;;;;;5067286;28;20713;-67
2023/10/01 00:21:31;;;;;;;23.63;22.80;;;13.90;99.90;;;;;;5066437;28;20265;-66
2023/10/01 00:23:58;;;;;;;21.17;20.37;;;14.00;99.90;;;;;;5065885;28;20296;-67
2023/10/01 00:26:26;;;;;;;22.83;22.03;;;14.00;99.90;;;;;;5066818;28;20200;-67
2023/10/01 00:28:53;;;;;;;25.77;24.77;;;14.00;99.90;;;;;;5064000;28;20679;-67
2023/10/01 00:31:20;;;;;;;22.87;22.07;;;14.00;99.90;;;;;;5065151;28;20756;-67
2023/10/01 00:33:48;;;;;;;24.25;23.35;;;14.00;99.90;;;;;;5071416;28;20624;-65
2023/10/01 00:36:14;;;;;;;20.73;20.00;;;14.00;99.90;;;;;;5072599;28;20207;-69
2023/10/01 00:38:41;;;;;;;29.02;27.98;;;13.90;99.90;;;;;;5071464;28;20298;-66
2023/10/01 00:41:09;;;;;;;28.57;27.50;;;13.90;99.90;;;;;;5069632;28;20745;-66
2023/10/01 00:43:37;;;;;;;29.05;27.88;;;13.90;99.90;;;;;;5073221;28;20201;-66
2023/10/01 00:46:04;;;;;;;27.10;26.10;;;13.80;99.90;;;;;;5071684;28;20210;-65
2023/10/01 00:48:32;;;;;;;27.20;26.20;;;13.90;99.90;;;;;;5073321;28;20230;-68
2023/10/01 00:51:04;;;;;;;25.77;24.83;;;13.90;99.90;;;;;;5071329;28;20314;-67
2023/10/01 00:53:32;;;;;;;23.90;23.00;;;13.90;99.90;;;;;;5073021;28;20203;-66
2023/10/01 00:56:00;;;;;;;22.13;21.33;;;13.80;99.90;;;;;;5071943;28;20211;-68
2023/10/01 00:58:27;;;;;;;19.85;19.13;;;13.80;99.90;;;;;;5073118;28;20211;-68
2023/10/01 01:00:56;;;;;;;24.27;23.37;;;13.80;99.90;;;;;;5072849;28;20195;-66
2023/10/01 01:03:23;;;;;;;28.00;26.97;;;13.80;99.90;;;;;;5070240;28;20203;-67
2023/10/01 01:06:12;;;;;;;27.33;26.33;;;13.70;99.90;;;;;;5072724;28;20690;-69
2023/10/01 01:08:47;;;;;;;24.80;23.87;;;13.70;99.90;;;;;;5071202;28;20257;-66
2023/10/01 01:11:15;;;;;;;24.20;23.30;;;13.70;99.90;;;;;;5072167;28;20226;-68
2023/10/01 01:13:44;;;;;;;26.27;25.27;;;13.70;99.90;;;;;;5070659;28;20222;-65
2023/10/01 01:16:13;;;;;;;25.40;24.50;;;13.70;99.90;;;;;;5071137;28;20203;-67
2023/10/01 01:18:42;;;;;;;28.65;27.52;;;13.70;99.90;;;;;;5072181;28;20357;-68
2023/10/01 01:21:10;;;;;;;23.97;23.07;;;13.70;99.90;;;;;;5071496;28;20243;-65
2023/10/01 01:23:41;;;;;;;26.50;25.50;;;13.60;99.90;;;;;;5072382;28;20202;-66
2023/10/01 01:26:10;;;;;;;24.38;23.42;;;13.70;99.90;;;;;;5073298;28;20621;-67
2023/10/01 01:28:37;;;;;;;24.67;23.80;;;13.70;99.90;;;;;;5071290;28;20594;-66
2023/10/01 01:31:05;;;;;;;24.33;23.43;;;13.60;99.90;;;;;;5071173;28;20310;-65
2023/10/01 01:33:40;;;;;;;22.50;21.60;;;13.50;99.90;;;;;;5071896;28;20294;-67
2023/10/01 01:36:09;;;;;;;26.17;25.27;;;13.50;99.90;;;;;;5076045;28;20264;-67
2023/10/01 01:38:49;;;;;;;26.30;25.37;;;13.50;99.90;;;;;;5075525;28;20203;-66
2023/10/01 01:41:19;;;;;;;25.20;24.23;;;13.50;99.90;;;;;;5075261;28;20218;-65
2023/10/01 01:43:48;;;;;;;26.27;25.30;;;13.40;99.90;;;;;;5075389;28;20271;-66
2023/10/01 01:46:15;;;;;;;25.88;24.90;;;13.50;99.90;;;;;;5078658;28;20685;-67
2023/10/01 01:48:43;;;;;;;21.60;20.80;;;13.50;99.90;;;;;;5082019;28;20233;-65
2023/10/01 01:51:10;;;;;;;27.97;26.97;;;13.50;99.90;;;;;;5086916;28;20317;-66
2023/10/01 01:53:41;;;;;;;27.35;26.35;;;13.40;99.90;;;;;;5088903;28;20263;-66
2023/10/01 01:56:10;;;;;;;23.27;22.40;;;13.40;99.90;;;;;;5087700;28;20222;-67
2023/10/01 01:58:39;;;;;;;22.02;21.20;;;13.40;99.90;;;;;;5086580;28;20278;-69
2023/10/01 02:01:17;;;;;;;26.00;25.07;;;13.40;99.90;;;;;;5080985;28;20282;-67
2023/10/01 02:03:47;;;;;;;32.33;31.15;;;13.40;99.90;;;;;;5081902;28;20274;-68
2023/10/01 02:06:14;;;;;;;22.23;21.43;;;13.40;99.90;;;;;;5083488;28;20203;-67
2023/10/01 02:08:49;;;;;;;22.53;21.73;;;13.40;99.90;;;;;;5086009;28;20211;-66
2023/10/01 02:11:18;;;;;;;19.87;19.17;;;13.40;99.90;;;;;;5079366;28;20245;-67
2023/10/01 02:13:46;;;;;;;27.97;26.97;;;13.40;99.90;;;;;;5075042;28;20207;-66
2023/10/01 02:16:34;;;;;;;24.93;24.03;;;13.40;99.90;;;;;;5075162;28;20214;-65
2023/10/01 02:19:14;;;;;;;23.73;22.83;;;13.40;99.90;;;;;;5075016;28;20256;-67
2023/10/01 02:21:43;;;;;;;28.37;27.30;;;13.30;99.90;;;;;;5074806;28;20342;-66
2023/10/01 02:24:13;;;;;;;26.50;25.50;;;13.30;99.90;;;;;;5074298;28;20229;-65
2023/10/01 02:26:40;;;;;;;23.03;22.23;;;13.20;99.90;;;;;;5072408;28;20211;-63
2023/10/01 02:29:08;;;;;;;23.53;22.63;;;13.10;99.90;;;;;;5071464;28;20211;-64
2023/10/01 02:31:35;;;;;;;24.80;23.90;;;13.10;99.90;;;;;;5070789;28;20314;-62
2023/10/01 02:34:03;;;;;;;24.90;24.00;;;13.10;99.90;;;;;;5071406;28;20203;-64
2023/10/01 02:36:31;;;;;;;27.47;26.47;;;13.10;99.90;;;;;;5070648;28;20223;-65
2023/10/01 02:38:56;;;;;;;22.83;22.03;;;13.10;99.90;;;;;;5069643;28;20212;-64
2023/10/01 02:41:26;;;;;;;25.33;24.43;;;13.10;99.90;;;;;;5070323;28;20586;-67
2023/10/01 02:43:52;;;;;;;27.47;26.47;;;13.10;99.90;;;;;;5070424;28;20698;-64
2023/10/01 02:46:26;;;;;;;21.90;21.10;;;13.10;99.90;;;;;;5069965;28;20203;-65
2023/10/01 02:48:54;;;;;;;28.00;27.00;;;13.10;99.90;;;;;;5071652;28;20680;-65
2023/10/01 02:51:32;;;;;;;25.20;24.30;;;13.10;99.90;;;;;;5071045;28;20227;-68
2023/10/01 02:54:04;;;;;;;24.90;24.00;;;13.10;99.90;;;;;;5071067;28;20200;-66
2023/10/01 02:56:33;;;;;;;26.95;25.98;;;13.10;99.90;;;;;;5070360;28;20206;-65
2023/10/01 02:59:07;;;;;;;24.73;23.87;;;13.10;99.90;;;;;;5071226;28;20673;-65
2023/10/01 03:01:36;;;;;;;23.63;22.53;;;13.10;99.90;;;;;;5070845;28;20223;-67
2023/10/01 03:04:05;;;;;;;24.20;23.30;;;13.20;99.90;;;;;;5071142;28;20230;-65
2023/10/01 03:06:33;;;;;;;27.30;26.20;;;13.20;99.90;;;;;;5071728;28;20211;-65
2023/10/01 03:09:00;;;;;;;26.17;25.20;;;13.10;99.90;;;;;;5071945;28;20238;-65
2023/10/01 03:11:35;;;;;;;27.07;26.07;;;13.10;99.90;;;;;;5071774;28;20693;-65
2023/10/01 03:14:19;;;;;;;25.80;24.87;;;13.10;99.90;;;;;;5072031;28;20332;-65
2023/10/01 03:16:53;;;;;;;25.60;24.67;;;13.10;99.90;;;;;;5071441;28;20246;-66
2023/10/01 03:19:25;;;;;;;23.70;22.88;;;13.10;99.90;;;;;;5071679;28;20311;-67
2023/10/01 03:24:43;;;;;;;28.07;27.00;;;13.20;99.90;;;;;;5071697;28;20210;-64
2023/10/01 03:30:18;;;;;;;23.75;22.92;;;13.20;99.90;;;;;;5067789;28;20203;-66
2023/10/01 03:32:46;;;;;;;28.90;27.83;;;13.20;99.90;;;;;;5071533;28;20247;-64
2023/10/01 03:35:13;;;;;;;29.37;28.27;;;13.20;99.90;;;;;;5071395;28;20670;-66
2023/10/01 03:37:40;;;;;;;22.30;21.50;;;13.20;99.90;;;;;;5071121;28;20208;-66
2023/10/01 03:40:18;;;;;;;24.33;23.43;;;13.20;99.90;;;;;;5071744;28;20567;-65
2023/10/01 03:42:51;;;;;;;22.80;21.93;;;13.20;99.90;;;;;;5065899;28;20310;-66
2023/10/01 03:45:37;;;;;;;22.33;21.52;;;13.20;99.90;;;;;;5069643;28;20207;-65
2023/10/01 03:48:06;;;;;;;26.20;25.23;;;13.20;99.90;;;;;;5071381;28;20207;-66
2023/10/01 03:50:45;;;;;;;25.20;24.30;;;13.10;99.90;;;;;;5071703;28;20289;-65
2023/10/01 03:53:12;;;;;;;22.37;21.57;;;13.20;99.90;;;;;;5070261;28;20235;-67
2023/10/01 03:55:42;;;;;;;22.43;21.63;;;13.10;99.90;;;;;;5067571;28;20203;-66
2023/10/01 03:58:18;;;;;;;22.73;21.93;;;13.20;99.90;;;;;;5069607;28;20265;-66
2023/10/01 04:00:53;;;;;;;23.53;22.63;;;13.10;99.90;;;;;;5067292;28;20211;-66
2023/10/01 04:03:21;;;;;;;22.93;22.10;;;13.10;99.90;;;;;;5071726;28;20207;-64
2023/10/01 04:05:48;;;;;;;23.33;22.53;;;13.20;99.90;;;;;;5065246;28;20218;-65
2023/10/01 04:08:15;;;;;;;21.47;20.67;;;13.10;99.90;;;;;;5065487;28;20230;-65
2023/10/01 04:10:43;;;;;;;23.07;22.27;;;13.10;99.90;;;;;;5066471;28;20585;-65
2023/10/01 04:13:13;;;;;;;22.90;22.10;;;13.00;99.90;;;;;;5062221;28;20773;-65
2023/10/01 04:15:43;;;;;;;23.30;22.47;;;13.00;99.90;;;;;;5069326;28;20665;-65
2023/10/01 04:18:21;;;;;;;21.40;20.60;;;13.00;99.90;;;;;;5069513;28;20575;-65
2023/10/01 04:21:17;;;;;;;23.05;22.23;;;12.90;99.90;;;;;;5069451;28;20248;-66
2023/10/01 04:23:40;;;;;;;26.08;25.15;;;12.90;99.90;;;;;;5068359;28;20207;-65
2023/10/01 04:26:08;;;;;;;25.73;24.83;;;12.90;99.90;;;;;;5065375;28;20211;-67
2023/10/01 04:28:37;;;;;;;25.60;24.70;;;12.90;99.90;;;;;;5070932;28;20274;-65
2023/10/01 04:31:08;;;;;;;29.63;28.57;;;12.90;99.90;;;;;;5069531;28;20226;-65
2023/10/01 04:33:36;;;;;;;25.53;24.63;;;12.90;99.90;;;;;;5071065;28;20207;-65
2023/10/01 04:36:10;;;;;;;25.55;24.65;;;12.90;99.90;;;;;;5071063;28;20207;-66
2023/10/01 04:38:38;;;;;;;23.30;22.50;;;12.90;99.90;;;;;;5066102;28;20203;-67
2023/10/01 04:41:07;;;;;;;29.40;28.33;;;12.90;99.90;;;;;;5061709;28;20709;-65
2023/10/01 04:43:35;;;;;;;22.97;22.07;;;12.90;99.90;;;;;;5072423;28;20211;-65
2023/10/01 04:46:04;;;;;;;27.00;26.00;;;12.80;99.90;;;;;;5074176;28;20199;-66
2023/10/01 04:48:33;;;;;;;26.37;25.37;;;12.80;99.90;;;;;;5072789;28;20712;-67
2023/10/01 04:51:02;;;;;;;24.80;23.90;;;12.80;99.90;;;;;;5069297;28;20729;-66
2023/10/01 04:53:30;;;;;;;27.20;26.20;;;12.80;99.90;;;;;;5079258;28;20433;-65
2023/10/01 04:56:01;;;;;;;26.47;25.57;;;12.80;99.90;;;;;;5071165;28;20211;-65
2023/10/01 04:58:32;;;;;;;28.60;27.57;;;12.80;99.90;;;;;;5062439;28;20280;-65
2023/10/01 05:01:01;;;;;;;25.17;24.27;;;12.80;99.90;;;;;;5070194;28;20231;-65
2023/10/01 05:03:38;;;;;;;28.97;27.93;;;12.80;99.90;;;;;;5074142;28;20203;-66
2023/10/01 05:06:09;;;;;;;28.30;27.30;;;12.80;99.90;;;;;;5067560;28;20720;-64
2023/10/01 05:08:39;;;;;;;27.47;26.47;;;12.80;99.90;;;;;;5068716;28;20207;-65
2023/10/01 05:11:10;;;;;;;22.13;21.33;;;12.80;99.90;;;;;;5065732;28;20227;-65
2023/10/01 05:13:39;;;;;;;26.97;25.97;;;12.80;99.90;;;;;;5062707;28;20268;-64
2023/10/01 05:16:06;;;;;;;21.13;20.33;;;12.70;99.90;;;;;;5068920;28;20587;-64
2023/10/01 05:18:34;;;;;;;26.43;25.47;;;12.70;99.90;;;;;;5066517;28;20212;-63
2023/10/01 05:21:04;;;;;;;21.77;20.97;;;12.70;99.90;;;;;;5072548;28;20606;-64
2023/10/01 05:23:32;;;;;;;30.37;29.27;;;12.70;99.90;;;;;;5070675;28;20610;-66
2023/10/01 05:25:59;;;;;;;21.87;21.07;;;12.70;99.90;;;;;;5074344;28;20214;-64
2023/10/01 05:28:34;;;;;;;20.87;20.07;;;12.60;99.90;;;;;;5068297;28;20227;-67
2023/10/01 05:31:05;;;;;;;26.53;25.57;;;12.60;99.90;;;;;;5067090;28;20309;-65
2023/10/01 05:33:33;;;;;;;21.27;20.47;;;12.60;99.90;;;;;;5069085;28;20809;-65
2023/10/01 05:36:03;;;;;;;25.87;24.90;;;12.60;99.90;;;;;;5068801;28;20219;-66
2023/10/01 05:38:34;;;;;;;20.23;19.50;;;12.60;99.90;;;;;;5071666;28;20745;-65
2023/10/01 05:41:03;;;;;;;20.53;19.80;;;12.60;99.90;;;;;;5065358;28;20227;-67
2023/10/01 05:43:35;;;;;;;24.97;24.07;;;12.70;99.90;;;;;;5074282;28;20617;-65
2023/10/01 05:46:08;;;;;;;24.27;23.37;;;12.70;99.90;;;;;;5074122;28;20226;-66
2023/10/01 05:48:35;;;;;;;25.53;24.63;;;12.70;99.90;;;;;;5067226;28;20764;-66
2023/10/01 05:51:03;;;;;;;25.30;24.40;;;12.70;99.90;;;;;;5073513;28;20219;-65
2023/10/01 05:53:32;;;;;;;24.37;23.47;;;12.80;99.90;;;;;;5073591;28;20711;-65
2023/10/01 05:56:06;;;;;;;22.37;21.57;;;12.80;99.90;;;;;;5073583;28;20206;-65
2023/10/01 05:58:33;;;;;;;24.93;23.97;;;12.80;99.90;;;;;;5070595;28;20593;-65
2023/10/01 06:01:05;;;;;;;24.80;23.90;;;12.80;99.90;;;;;;5072575;28;20231;-65
2023/10/01 06:03:33;;;;;;;24.37;23.47;;;12.80;99.90;;;;;;5070988;28;20199;-65
2023/10/01 06:06:08;;;;;;;23.70;22.83;;;12.90;99.90;;;;;;5069302;28;20692;-66
2023/10/01 06:08:46;;;;;;;27.03;26.03;;;12.90;99.90;;;;;;5073615;28;20276;-65
2023/10/01 06:11:15;;;;;;;24.63;23.73;;;12.80;99.90;;;;;;5067990;28;20721;-66
2023/10/01 06:13:49;;;;;;;30.40;29.30;;;12.80;99.90;;;;;;5073401;28;20231;-65
2023/10/01 06:16:22;;;;;;;27.70;26.70;;;12.90;99.90;;;;;;5069199;28;20215;-67
2023/10/01 06:18:51;;;;;;;24.80;23.90;;;12.90;99.90;;;;;;5067552;28;20215;-65
2023/10/01 06:21:19;;;;;;;29.80;28.50;;;13.00;99.90;;;;;;5069192;28;20235;-65
2023/10/01 06:23:53;;;;;;;27.03;26.03;;;13.00;99.90;;;;;;5071492;28;20214;-65
2023/10/01 06:26:22;;;;;;;30.37;29.27;;;13.10;99.90;;;;;;5070666;28;20216;-65
2023/10/01 06:28:51;;;;;;;31.40;30.27;;;13.10;99.90;;;;;;5071200;28;20247;-65
2023/10/01 06:31:20;;;;;;;27.37;26.37;;;13.10;99.90;;;;;;5072311;28;20227;-65
2023/10/01 06:33:49;;;;;;;26.20;25.30;;;13.10;99.90;;;;;;5070420;28;20280;-66
2023/10/01 06:36:19;;;;;;;23.13;22.30;;;13.20;99.90;;;;;;5073184;28;20221;-63
2023/10/01 06:38:48;;;;;;;25.73;24.80;;;13.20;99.90;;;;;;5069477;28;20211;-65
2023/10/01 06:41:18;;;;;;;25.83;24.83;;;13.20;99.90;;;;;;5070040;28;20219;-66
2023/10/01 06:43:49;;;;;;;27.10;26.10;;;13.30;99.90;;;;;;5062893;28;20208;-65
2023/10/01 06:46:19;;;;;;;25.43;24.53;;;13.30;99.90;;;;;;5061576;28;20207;-66
2023/10/01 06:48:47;;;;;;;28.03;27.00;;;13.40;99.90;;;;;;5072678;28;20203;-66
2023/10/01 06:51:15;;;;;;;28.33;27.30;;;13.40;99.90;;;;;;5072478;28;20298;-65
2023/10/01 06:53:45;;;;;;;28.57;27.53;;;13.50;99.90;;;;;;5070914;28;20225;-65
2023/10/01 06:56:17;;;;;;;22.73;21.83;;;13.60;99.90;;;;;;5068245;28;20215;-66
2023/10/01 06:59:01;;;;;;;28.10;27.10;;;13.70;99.90;;;;;;5071247;28;20207;-65
2023/10/01 07:01:42;;;;;;;25.63;24.70;;;13.80;99.90;;;;;;5069362;28;20282;-65
2023/10/01 07:04:09;;;;;;;25.20;24.30;;;13.90;99.90;;;;;;5075395;28;20214;-65
2023/10/01 07:06:38;;;;;;;23.40;22.50;;;14.00;99.90;;;;;;5080057;28;20294;-67
2023/10/01 07:09:24;;;;;;;20.83;20.03;;;14.10;99.90;;;;;;5079729;28;20564;-65
2023/10/01 07:11:53;;;;;;;22.47;21.67;;;14.20;99.90;;;;;;5073708;28;20709;-65
2023/10/01 07:14:30;;;;;;;22.47;21.67;;;14.30;99.90;;;;;;5072758;28;20218;-67
2023/10/01 07:16:59;;;;;;;22.13;21.33;;;14.40;99.90;;;;;;5068571;28;20218;-67
2023/10/01 07:19:27;;;;;;;22.88;22.05;;;14.60;99.90;;;;;;5068668;28;20261;-67
2023/10/01 07:21:57;;;;;;;23.80;22.90;;;14.70;99.90;;;;;;5073380;28;20223;-65
2023/10/01 07:24:27;;;;;;;24.83;23.93;;;14.80;99.90;;;;;;5071970;28;20223;-65
2023/10/01 07:27:03;;;;;;;25.53;24.53;;;14.90;99.90;;;;;;5075950;28;20207;-67
2023/10/01 07:29:33;;;;;;;24.17;23.30;;;15.00;99.90;;;;;;5068846;28;20220;-65
2023/10/01 07:32:01;;;;;;;21.27;20.50;;;15.10;99.90;;;;;;5074917;28;20671;-66
2023/10/01 07:34:31;;;;;;;26.43;25.43;;;15.30;99.90;;;;;;5068326;28;20215;-64
2023/10/01 07:36:59;;;;;;;25.15;24.25;;;15.30;99.90;;;;;;5070285;28;20211;-65
2023/10/01 07:39:31;;;;;;;21.35;20.55;;;15.50;99.90;;;;;;5072872;28;20203;-65
2023/10/01 07:42:02;;;;;;;22.50;21.67;;;15.60;99.90;;;;;;5073965;28;20227;-65
2023/10/01 07:44:28;;;;;;;23.80;23.00;;;15.70;99.90;;;;;;5076471;28;20211;-64
2023/10/01 07:46:55;;;;;;;22.23;21.43;;;15.90;99.90;;;;;;5068074;28;20284;-65
2023/10/01 07:49:22;;;;;;;21.80;21.00;;;16.00;99.90;;;;;;5068605;28;20298;-67
2023/10/01 07:51:50;;;;;;;26.37;25.40;;;16.20;99.90;;;;;;5071565;28;20241;-66
2023/10/01 07:54:22;;;;;;;23.45;22.63;;;16.30;99.90;;;;;;5068862;28;20265;-67
2023/10/01 07:56:51;;;;;;;19.50;18.80;;;16.50;99.90;;;;;;5071003;28;20273;-67
2023/10/01 07:59:28;;;;;;;21.48;20.67;;;16.60;99.90;;;;;;5068948;28;20230;-65
2023/10/01 08:02:19;;;;;;;17.80;17.13;;;16.80;99.90;;;;;;5065492;28;20237;-66
2023/10/01 08:04:59;;;;;;;17.17;16.57;;;17.00;99.90;;;;;;5064400;28;20218;-67
2023/10/01 08:07:43;;;;;;;14.97;14.37;;;17.20;99.90;;;;;;5069123;28;20230;-66
2023/10/01 08:10:20;;;;;;;14.13;13.63;;;17.20;99.90;;;;;;5069979;28;20214;-67
2023/10/01 08:15:38;;;;;;;14.80;14.30;;;17.50;99.90;;;;;;5060051;28;20728;-67
2023/10/01 08:18:26;;;;;;;14.80;14.30;;;17.70;99.90;;;;;;5071392;28;20274;-65
2023/10/01 08:21:00;;;;;;;14.73;14.23;;;17.80;99.90;;;;;;5071436;28;20195;-65
2023/10/01 08:23:27;;;;;;;14.45;13.95;;;18.00;99.90;;;;;;5068257;28;20714;-66
2023/10/01 08:25:55;;;;;;;14.93;14.43;;;18.10;99.90;;;;;;5069602;28;20203;-66
2023/10/01 08:28:43;;;;;;;14.68;14.18;;;18.20;99.90;;;;;;5065242;28;20207;-66
2023/10/01 08:34:22;;;;;;;16.10;15.50;;;18.40;99.90;;;;;;5069926;28;20282;-65
2023/10/01 08:36:42;;;;;;;16.90;16.30;;;18.40;99.90;;;;;;5069156;28;20303;-66
2023/10/01 08:39:33;;;;;;;15.77;15.18;;;18.60;99.90;;;;;;5069090;28;20721;-64
2023/10/01 08:42:08;;;;;;;16.67;16.07;;;18.80;99.90;;;;;;5070396;28;20285;-65
2023/10/01 08:44:45;;;;;;;16.63;16.02;;;19.00;99.90;;;;;;5069343;28;20234;-65
2023/10/01 08:47:31;;;;;;;16.95;16.35;;;19.20;99.90;;;;;;5065287;28;20695;-66
2023/10/01 08:50:15;;;;;;;17.87;17.17;;;19.40;99.90;;;;;;5065539;28;20222;-65
2023/10/01 08:52:52;;;;;;;17.15;16.55;;;19.50;99.90;;;;;;5071176;28;20330;-66
2023/10/01 08:55:22;;;;;;;17.20;16.60;;;19.50;99.90;;;;;;5073098;28;20210;-65
2023/10/01 08:57:52;;;;;;;17.43;16.80;;;19.60;99.90;;;;;;5070448;28;20689;-65
2023/10/01 09:00:23;;;;;;;17.70;17.10;;;19.60;99.90;;;;;;5073778;28;20211;-66
2023/10/01 09:02:55;;;;;;;17.00;16.30;;;19.70;99.90;;;;;;5075002;28;20239;-65
2023/10/01 09:05:25;;;;;;;16.13;15.53;;;19.70;99.90;;;;;;5071891;28;20295;-63
2023/10/01 09:08:15;;;;;;;15.90;15.30;;;19.80;99.90;;;;;;5065465;28;20449;-65
2023/10/01 09:11:00;;;;;;;16.03;15.43;;;20.00;99.90;;;;;;5073290;28;20573;-65
2023/10/01 09:13:30;;;;;;;16.07;15.47;;;20.10;99.90;;;;;;5071598;28;20219;-66
2023/10/01 09:16:11;;;;;;;16.73;16.13;;;20.20;99.90;;;;;;5075017;28;20253;-66
2023/10/01 09:19:03;;;;;;;17.00;16.40;;;20.40;99.90;;;;;;5074654;28;20203;-66
2023/10/01 09:21:38;;;;;;;17.80;17.20;;;20.70;99.90;;;;;;5063738;28;20227;-65
2023/10/01 09:24:31;;;;;;;17.83;17.23;;;20.90;99.90;;;;;;5075145;28;20203;-66
2023/10/01 09:27:08;;;;;;;17.25;16.65;;;21.00;99.90;;;;;;5071861;28;20211;-65
2023/10/01 09:29:43;;;;;;;17.70;17.10;;;21.10;99.90;;;;;;5071177;28;20238;-66
2023/10/01 09:32:13;;;;;;;18.38;17.67;;;21.20;99.90;;;;;;5070556;28;20234;-67
2023/10/01 09:34:47;;;;;;;19.10;18.40;;;21.30;99.90;;;;;;5071452;28;20215;-66
2023/10/01 09:37:33;;;;;;;18.58;17.88;;;21.30;99.90;;;;;;5069586;28;20203;-67
2023/10/01 09:40:05;;;;;;;18.13;17.42;;;21.30;99.90;;;;;;5071601;28;20678;-67
2023/10/01 09:42:44;;;;;;;18.00;17.30;;;21.40;99.90;;;;;;5071257;28;20226;-66
2023/10/01 09:45:26;;;;;;;19.23;18.53;;;21.50;99.90;;;;;;5073240;28;20206;-67
2023/10/01 09:48:03;;;;;;;17.92;17.33;;;21.40;99.90;;;;;;5069239;28;20200;-65
2023/10/01 09:50:39;;;;;;;18.77;18.08;;;21.40;99.90;;;;;;5064112;28;20302;-67
2023/10/01 09:53:15;;;;;;;17.38;16.77;;;21.30;99.90;;;;;;5069372;28;20234;-66
2023/10/01 09:55:49;;;;;;;17.65;17.05;;;21.30;99.90;;;;;;5079543;28;20274;-66
2023/10/01 09:58:24;;;;;;;17.88;17.20;;;21.40;99.90;;;;;;5082216;28;20210;-67
2023/10/01 10:00:52;;;;;;;18.60;17.90;;;21.60;99.90;;;;;;5081016;28;20549;-66
2023/10/01 10:03:19;;;;;;;18.58;17.88;;;21.80;99.90;;;;;;5083165;28;20196;-65
2023/10/01 10:05:48;;;;;;;19.02;18.33;;;21.90;99.90;;;;;;5074308;28;20294;-66
2023/10/01 10:08:16;;;;;;;18.38;17.67;;;21.90;99.90;;;;;;5070578;28;20282;-66
2023/10/01 10:10:49;;;;;;;18.67;17.98;;;21.80;99.90;;;;;;5073227;28;20218;-67
2023/10/01 10:13:36;;;;;;;19.27;18.58;;;22.00;99.90;;;;;;5067338;28;20227;-65
2023/10/01 10:16:28;;;;;;;20.13;19.38;;;22.10;99.90;;;;;;5068151;28;20265;-67
2023/10/01 10:19:13;;;;;;;19.15;18.45;;;22.10;99.90;;;;;;5070575;28;20212;-66
2023/10/01 10:22:12;;;;;;;20.02;19.30;;;22.10;99.90;;;;;;5064995;28;20730;-65
2023/10/01 10:24:45;;;;;;;18.40;17.70;;;22.20;99.90;;;;;;4997677;28;20276;-67
2023/10/01 10:27:17;;;;;;;19.45;18.75;;;22.20;99.90;;;;;;5052604;28;20807;-67
2023/10/01 10:30:21;;;;;;;19.75;19.05;;;22.30;99.90;;;;;;5061625;28;20207;-66
2023/10/01 10:33:38;;;;;;;19.58;18.88;;;22.50;99.90;;;;;;5068065;28;20270;-66
2023/10/01 10:36:51;;;;;;;19.90;19.10;;;22.70;99.90;;;;;;5069261;28;20243;-66
2023/10/01 10:40:22;;;;;;;18.83;18.05;;;22.70;99.90;;;;;;5071698;28;20203;-65
2023/10/01 10:43:16;;;;;;;19.73;19.02;;;22.80;99.90;;;;;;4992217;28;20658;-66
2023/10/01 10:45:58;;;;;;;20.15;19.45;;;22.90;99.90;;;;;;4993114;28;20241;-65
2023/10/01 10:48:48;;;;;;;17.77;17.08;;;23.10;99.90;;;;;;4996942;28;20691;-65
2023/10/01 10:51:45;;;;;;;17.63;17.02;;;23.10;99.90;;;;;;5000398;28;20266;-66
2023/10/01 10:54:16;;;;;;;17.80;17.10;;;23.10;99.90;;;;;;5002106;28;20218;-66
2023/10/01 10:56:44;;;;;;;18.65;17.95;;;23.20;99.90;;;;;;5002827;28;20209;-67
2023/10/01 10:59:13;;;;;;;18.17;17.48;;;23.20;99.90;;;;;;5005008;28;20206;-67
2023/10/01 11:01:44;;;;;;;18.98;18.27;;;23.20;99.90;;;;;;5004019;28;20225;-67
2023/10/01 11:04:12;;;;;;;18.58;17.88;;;23.00;99.90;;;;;;4993593;28;20205;-66
2023/10/01 11:06:42;;;;;;;20.65;19.88;;;22.90;99.90;;;;;;4994278;28;20237;-66
2023/10/01 11:09:25;;;;;;;19.50;18.75;;;23.00;99.90;;;;;;4993195;28;20383;-66
2023/10/01 11:11:52;;;;;;;16.83;16.23;;;23.20;99.90;;;;;;4995694;28;20233;-66
2023/10/01 11:14:20;;;;;;;18.70;18.00;;;23.00;99.90;;;;;;5061778;28;20238;-67
2023/10/01 11:16:49;;;;;;;21.02;20.23;;;23.10;99.90;;;;;;5071698;28;20294;-67
2023/10/01 11:19:17;;;;;;;20.08;19.17;;;23.30;99.90;;;;;;5070769;28;20215;-66
2023/10/01 11:21:54;;;;;;;21.10;20.30;;;23.40;99.90;;;;;;5067748;28;20250;-68
2023/10/01 11:24:24;;;;;;;18.67;17.98;;;23.50;99.90;;;;;;5072213;28;20210;-67
2023/10/01 11:27:17;;;;;;;18.63;17.93;;;23.50;99.90;;;;;;5068228;28;20222;-68
2023/10/01 11:29:44;;;;;;;18.98;18.27;;;23.50;99.90;;;;;;5068798;28;20313;-66
2023/10/01 11:32:16;;;;;;;18.20;17.50;;;23.60;99.90;;;;;;5072154;28;20246;-68
2023/10/01 11:34:45;;;;;;;18.48;17.77;;;23.70;99.90;;;;;;5064972;28;20273;-66
2023/10/01 11:37:19;;;;;;;22.02;21.23;;;23.60;99.90;;;;;;5070361;28;20207;-67
2023/10/01 11:39:53;;;;;;;18.58;17.88;;;23.60;99.90;;;;;;5065603;28;20213;-68
2023/10/01 11:42:35;;;;;;;18.77;18.08;;;23.70;99.90;;;;;;5069681;28;20235;-65
2023/10/01 11:45:28;;;;;;;18.50;17.80;;;23.80;99.90;;;;;;5069123;28;20203;-66
2023/10/01 11:48:05;;;;;;;17.23;16.63;;;23.80;99.90;;;;;;5068134;28;20207;-66
2023/10/01 11:50:32;;;;;;;18.73;18.02;;;23.90;99.90;;;;;;5072510;28;20665;-66
2023/10/01 11:53:07;;;;;;;17.60;17.00;;;23.70;99.90;;;;;;5065793;28;20233;-66
2023/10/01 11:55:34;;;;;;;18.55;17.85;;;23.90;99.90;;;;;;5071588;28;20205;-66
2023/10/01 11:58:01;;;;;;;22.27;21.33;;;24.00;99.90;;;;;;5068802;28;20215;-66
2023/10/01 12:00:52;;;;;;;17.65;16.95;;;24.00;99.90;;;;;;5068190;28;20203;-66
2023/10/01 12:03:19;;;;;;;17.80;17.10;;;23.80;99.90;;;;;;5067025;28;20286;-68
2023/10/01 12:05:47;;;;;;;17.83;17.15;;;23.90;99.90;;;;;;5068624;28;20298;-66
2023/10/01 12:08:18;;;;;;;17.23;16.63;;;24.00;99.90;;;;;;5069226;28;20211;-66
2023/10/01 12:10:51;;;;;;;18.08;17.38;;;24.20;99.90;;;;;;5072146;28;20220;-68
2023/10/01 12:13:20;;;;;;;17.23;16.52;;;24.20;99.90;;;;;;5069685;28;20245;-65
2023/10/01 12:15:52;;;;;;;17.33;16.73;;;24.10;99.90;;;;;;5081252;28;20199;-66
2023/10/01 12:18:19;;;;;;;17.05;16.45;;;24.20;99.90;;;;;;5072313;28;20212;-66
2023/10/01 12:20:50;;;;;;;17.77;17.08;;;24.20;99.90;;;;;;5067290;28;20312;-66
2023/10/01 12:23:19;;;;;;;17.20;16.60;;;24.10;99.90;;;;;;5071826;28;20203;-66
2023/10/01 12:25:49;;;;;;;17.08;16.38;;;24.30;99.90;;;;;;5069262;28;20298;-66
2023/10/01 12:28:18;;;;;;;17.10;16.50;;;24.30;99.90;;;;;;5069065;28;20239;-67
2023/10/01 12:30:46;;;;;;;16.48;15.88;;;24.40;99.90;;;;;;5069157;28;20733;-66
2023/10/01 12:33:14;;;;;;;17.13;16.42;;;24.60;99.90;;;;;;5071613;28;20211;-67
2023/10/01 12:35:41;;;;;;;16.05;15.45;;;24.70;99.90;;;;;;5068810;28;20214;-65
2023/10/01 12:40:53;;;;;;;17.13;16.52;;;24.90;99.90;;;;;;5071466;28;20199;-68
2023/10/01 12:43:36;;;;;;;16.40;15.80;;;24.90;99.90;;;;;;5074996;28;20211;-65
2023/10/01 12:46:08;;;;;;;17.33;16.70;;;24.90;99.90;;;;;;5072305;28;20695;-66
2023/10/01 12:48:34;;;;;;;19.30;18.55;;;24.80;99.90;;;;;;5071574;28;20238;-68
2023/10/01 12:51:03;;;;;;;16.73;16.05;;;24.60;99.90;;;;;;5069600;28;20217;-66
2023/10/01 12:53:34;;;;;;;16.42;15.82;;;24.50;99.90;;;;;;5070916;28;20206;-66
2023/10/01 12:56:03;;;;;;;16.65;16.05;;;24.60;99.90;;;;;;5070159;28;20287;-66
2023/10/01 12:58:35;;;;;;;16.92;16.33;;;24.70;99.90;;;;;;5071608;28;20222;-66
2023/10/01 13:01:03;;;;;;;16.45;15.85;;;24.90;99.90;;;;;;5071055;28;20231;-66
2023/10/01 13:03:30;;;;;;;17.42;16.83;;;25.10;99.90;;;;;;5069690;28;20211;-67
2023/10/01 13:06:05;;;;;;;17.20;16.40;;;25.20;99.90;;;;;;5065889;28;20203;-66
2023/10/01 13:08:31;;;;;;;17.38;16.67;;;25.20;99.90;;;;;;5070618;28;20292;-66
2023/10/01 13:10:58;;;;;;;17.55;16.85;;;25.10;99.90;;;;;;5067902;28;20207;-70